Time;durP1;ratioP1;P1;durP2;ratioP2;P2;SDS_P1;SDS_P2;PMS_P1;PMS_P2;Temp;Humidity;BMP_temperature;BMP_pressure;BME280_temperature;BME280_humidity;BME280_pressure;Samples;Min_cycle;Max_cycle;Signal;HPM_P1;HPM_P2
2022/10/12 00:00:48;;;;;;;10.67;4.43;;;;;;;7.92;49.83;101465.81;10065805;29;20256;-80
2022/10/12 00:06:19;;;;;;;13.33;4.83;;;;;;;8.13;49.80;101461.72;10051627;29;20245;-79
2022/10/12 00:11:42;;;;;;;11.13;4.50;;;;;;;8.39;48.84;101465.16;10069413;29;20313;-79
2022/10/12 00:17:04;;;;;;;6.53;3.87;;;;;;;8.25;48.73;101447.31;10066254;29;20246;-79
2022/10/12 00:22:26;;;;;;;9.83;4.37;;;;;;;8.58;48.72;101449.28;10074886;29;20230;-79
2022/10/12 00:27:48;;;;;;;11.97;4.60;;;;;;;7.22;50.84;101462.16;10085163;29;20249;-78
2022/10/12 00:33:11;;;;;;;8.63;4.03;;;;;;;7.53;50.45;101457.28;10080032;29;20260;-79
2022/10/12 00:38:33;;;;;;;9.13;4.20;;;;;;;8.01;48.78;101459.28;10064401;29;20254;-79
2022/10/12 00:43:55;;;;;;;10.37;4.20;;;;;;;8.16;49.20;101461.13;10075362;29;20288;-78
2022/10/12 00:49:20;;;;;;;7.33;3.57;;;;;;;7.84;49.36;101452.38;10072351;29;20238;-78
2022/10/12 00:54:46;;;;;;;8.83;3.90;;;;;;;7.65;49.67;101464.25;10065571;29;20253;-78
2022/10/12 01:00:09;;;;;;;6.43;2.90;;;;;;;7.93;49.37;101467.47;10058516;29;20780;-78
2022/10/12 01:05:31;;;;;;;7.17;3.53;;;;;;;7.57;49.64;101470.50;10052456;29;20245;-79
2022/10/12 01:10:54;;;;;;;8.27;3.47;;;;;;;7.65;49.55;101461.47;10041108;29;20290;-80
2022/10/12 01:16:38;;;;;;;6.90;3.80;;;;;;;7.40;50.05;101464.34;10073931;29;20590;-79
2022/10/12 01:22:02;;;;;;;8.27;3.90;;;;;;;7.59;49.48;101448.56;10078875;29;20359;-79
2022/10/12 01:27:39;;;;;;;9.13;3.67;;;;;;;8.01;47.99;101452.81;10072460;29;20230;-79
2022/10/12 01:33:06;;;;;;;8.03;3.67;;;;;;;7.48;49.04;101444.09;10081823;29;20257;-80
2022/10/12 01:38:43;;;;;;;7.90;3.87;;;;;;;7.80;48.56;101437.25;10053927;29;20286;-80
2022/10/12 01:44:05;;;;;;;7.43;3.60;;;;;;;7.26;49.44;101438.03;10056471;29;20279;-79
2022/10/12 01:49:29;;;;;;;8.53;3.77;;;;;;;6.78;51.14;101443.25;10056771;29;20238;-80
2022/10/12 01:55:14;;;;;;;7.97;3.47;;;;;;;7.01;50.33;101439.81;10058850;29;20262;-80
2022/10/12 02:00:52;;;;;;;7.20;3.53;;;;;;;7.33;49.93;101432.94;10056754;29;20686;-79
2022/10/12 02:06:17;;;;;;;4.63;3.43;;;;;;;7.11;50.37;101438.09;10070368;29;20373;-79
2022/10/12 02:11:40;;;;;;;6.73;3.70;;;;;;;7.18;49.50;101427.44;10076554;29;20275;-80
2022/10/12 02:17:05;;;;;;;7.27;3.53;;;;;;;6.79;50.79;101424.47;10076279;29;20512;-80
2022/10/12 02:22:38;;;;;;;8.67;3.60;;;;;;;6.83;50.59;101420.78;10079486;29;20266;-80
2022/10/12 02:28:06;;;;;;;6.63;3.57;;;;;;;7.08;50.33;101417.06;10077052;29;20575;-80
2022/10/12 02:33:55;;;;;;;7.77;3.53;;;;;;;6.91;49.79;101414.63;10078986;29;20253;-80
2022/10/12 02:39:20;;;;;;;5.87;3.50;;;;;;;7.08;49.64;101411.47;10089323;29;20262;-79
2022/10/12 02:44:43;;;;;;;13.37;4.80;;;;;;;7.11;49.76;101408.09;10082641;29;20541;-80
2022/10/12 02:50:07;;;;;;;7.60;3.43;;;;;;;6.63;51.02;101407.69;10081772;29;20269;-80
2022/10/12 02:55:30;;;;;;;5.37;3.50;;;;;;;6.97;49.57;101390.22;10064787;29;20230;-80
2022/10/12 03:00:52;;;;;;;5.23;3.50;;;;;;;7.43;48.32;101376.84;10067657;29;20211;-80
2022/10/12 03:06:14;;;;;;;6.30;3.63;;;;;;;6.93;49.45;101370.31;10089313;29;20253;-80
2022/10/12 03:11:36;;;;;;;7.53;3.80;;;;;;;6.90;49.42;101376.50;10086611;29;20623;-81
2022/10/12 03:16:58;;;;;;;7.10;4.10;;;;;;;7.10;49.86;101380.34;10070541;29;20233;-80
2022/10/12 03:22:20;;;;;;;7.77;3.43;;;;;;;7.05;49.21;101369.19;10081510;29;20233;-80
2022/10/12 03:27:42;;;;;;;7.67;3.53;;;;;;;6.97;49.69;101377.03;10074730;29;20210;-80
2022/10/12 03:33:04;;;;;;;6.83;3.67;;;;;;;6.81;49.69;101378.19;10052054;29;20826;-80
2022/10/12 03:38:27;;;;;;;6.57;3.40;;;;;;;6.92;49.27;101373.44;10058793;29;20312;-81
2022/10/12 03:43:49;;;;;;;7.10;4.07;;;;;;;6.65;49.49;101369.03;10063752;29;20237;-81
2022/10/12 03:49:11;;;;;;;9.13;3.50;;;;;;;6.61;49.77;101361.47;10078503;29;20500;-80
2022/10/12 03:54:33;;;;;;;7.93;3.40;;;;;;;6.55;49.76;101357.81;10071674;29;20291;-81
2022/10/12 03:59:55;;;;;;;7.07;3.73;;;;;;;6.83;48.90;101361.94;10070012;29;20309;-81
2022/10/12 04:05:17;;;;;;;9.93;3.90;;;;;;;6.65;49.48;101356.97;10078449;29;20285;-80
2022/10/12 04:10:39;;;;;;;6.07;3.90;;;;;;;6.35;50.06;101360.66;10075068;29;20319;-80
2022/10/12 04:16:06;;;;;;;8.07;4.17;;;;;;;6.42;50.38;101352.81;10075498;29;20253;-80
2022/10/12 04:21:29;;;;;;;11.47;4.00;;;;;;;6.62;49.73;101347.19;10071955;29;20305;-80
2022/10/12 04:26:52;;;;;;;8.23;4.17;;;;;;;6.74;49.58;101340.41;10075633;29;20206;-80
2022/10/12 04:32:14;;;;;;;6.83;3.60;;;;;;;5.91;51.36;101346.38;10064554;29;20222;-80
2022/10/12 04:37:36;;;;;;;5.47;3.87;;;;;;;6.50;50.04;101349.44;10070898;29;20202;-80
2022/10/12 04:42:58;;;;;;;7.00;3.80;;;;;;;6.43;49.92;101348.06;10069899;29;20688;-80
2022/10/12 04:48:21;;;;;;;7.00;3.83;;;;;;;6.64;50.04;101342.13;10076205;29;20289;-80
2022/10/12 04:53:43;;;;;;;7.87;3.87;;;;;;;6.69;49.88;101346.88;10077993;29;20249;-79
2022/10/12 04:59:05;;;;;;;8.07;3.80;;;;;;;6.57;50.39;101349.97;10073769;29;20214;-80
2022/10/12 05:04:27;;;;;;;6.97;4.00;;;;;;;6.55;50.47;101351.38;10086620;29;20238;-80
2022/10/12 05:09:34;;;;;;;5.40;3.70;;;;;;;6.99;49.19;101340.31;10036067;29;1044958;-80
2022/10/12 05:14:55;;;;;;;10.73;4.00;;;;;;;7.02;49.79;101326.56;10066522;29;20587;-79
2022/10/12 05:20:18;;;;;;;6.87;3.97;;;;;;;6.67;50.17;101332.28;10063091;29;20265;-80
2022/10/12 05:25:40;;;;;;;6.17;4.23;;;;;;;6.91;50.34;101322.16;10074851;29;20293;-80
2022/10/12 05:31:03;;;;;;;6.97;3.83;;;;;;;7.16;49.51;101314.72;10060372;29;20229;-80
2022/10/12 05:36:25;;;;;;;7.87;4.40;;;;;;;6.92;50.24;101312.63;10070520;29;20257;-80
2022/10/12 05:41:48;;;;;;;8.30;4.17;;;;;;;7.01;49.51;101316.47;10080843;29;20233;-80
2022/10/12 05:47:10;;;;;;;9.33;3.80;;;;;;;6.84;50.58;101332.81;10086439;29;20297;-80
2022/10/12 05:52:32;;;;;;;7.63;4.20;;;;;;;6.80;49.98;101337.28;10072644;29;20277;-80
2022/10/12 05:57:54;;;;;;;9.07;4.07;;;;;;;6.75;50.31;101351.34;10069889;29;20225;-80
2022/10/12 06:03:16;;;;;;;9.33;4.57;;;;;;;6.70;50.42;101344.91;10068472;29;20273;-80
2022/10/12 06:08:38;;;;;;;7.77;3.80;;;;;;;6.78;50.03;101345.16;10060197;29;20342;-80
2022/10/12 06:14:00;;;;;;;9.20;3.77;;;;;;;6.73;50.07;101347.97;10080679;29;20250;-80
2022/10/12 06:19:22;;;;;;;9.60;4.13;;;;;;;6.69;50.47;101352.47;10071207;29;20624;-80
2022/10/12 06:24:44;;;;;;;8.67;3.83;;;;;;;6.41;50.95;101350.31;10075334;29;20197;-80
2022/10/12 06:30:07;;;;;;;6.67;3.90;;;;;;;6.67;50.40;101359.50;10076957;29;20210;-81
2022/10/12 06:35:29;;;;;;;5.70;3.80;;;;;;;6.62;50.60;101351.94;10075464;29;20313;-80
2022/10/12 06:40:52;;;;;;;8.50;4.27;;;;;;;6.62;50.59;101352.78;10062253;29;20309;-81
2022/10/12 06:46:14;;;;;;;8.30;4.30;;;;;;;6.63;51.08;101360.06;10074290;29;20263;-81
2022/10/12 06:51:36;;;;;;;9.47;4.57;;;;;;;7.20;49.97;101357.88;10056879;29;20536;-81
2022/10/12 06:56:58;;;;;;;9.30;4.93;;;;;;;7.06;49.74;101366.06;10082097;29;20307;-81
2022/10/12 07:02:20;;;;;;;10.50;5.63;;;;;;;7.15;50.06;101355.94;10070855;29;20301;-81
2022/10/12 07:07:43;;;;;;;10.73;5.90;;;;;;;7.16;50.90;101352.03;10063976;29;20285;-81
2022/10/12 07:13:05;;;;;;;11.67;5.30;;;;;;;7.41;50.47;101348.22;10072537;29;20762;-81
2022/10/12 07:18:27;;;;;;;15.00;5.73;;;;;;;8.16;48.83;101336.75;10063530;29;20496;-81
2022/10/12 07:23:49;;;;;;;11.43;5.43;;;;;;;8.20;48.86;101329.41;10056195;29;20223;-82
2022/10/12 07:29:11;;;;;;;11.27;5.17;;;;;;;7.98;49.04;101335.47;10080712;29;20619;-81
2022/10/12 07:34:33;;;;;;;7.60;4.07;;;;;;;8.08;49.09;101329.81;10061605;29;20273;-81
2022/10/12 07:39:56;;;;;;;11.83;3.90;;;;;;;8.39;48.87;101335.94;10079371;29;20222;-82
2022/10/12 07:45:18;;;;;;;8.00;3.63;;;;;;;8.52;47.93;101345.63;10063672;29;20258;-81
2022/10/12 07:50:40;;;;;;;6.03;2.93;;;;;;;8.78;46.80;101339.47;10068755;29;20236;-81
2022/10/12 07:56:04;;;;;;;12.43;3.47;;;;;;;8.94;47.01;101331.69;10078325;29;20260;-82
2022/10/12 08:01:31;;;;;;;9.27;3.90;;;;;;;9.69;45.51;101320.53;10072081;29;20609;-81
2022/10/12 08:06:53;;;;;;;9.50;2.93;;;;;;;9.91;45.48;101314.28;10073499;29;20245;-81
2022/10/12 08:12:15;;;;;;;6.10;3.53;;;;;;;10.18;45.49;101324.75;10091107;29;20285;-81
2022/10/12 08:17:37;;;;;;;10.67;3.63;;;;;;;10.87;43.06;101320.06;10065580;29;20293;-81
2022/10/12 08:22:59;;;;;;;5.63;3.40;;;;;;;10.17;44.33;101331.56;10070843;29;20237;-84
2022/10/12 08:28:22;;;;;;;7.67;3.43;;;;;;;11.24;42.20;101322.66;10065646;29;20575;-82
2022/10/12 08:33:44;;;;;;;7.63;3.37;;;;;;;10.75;44.71;101328.22;10064108;29;20300;-83
2022/10/12 08:39:07;;;;;;;7.03;2.83;;;;;;;11.04;43.55;101317.47;10060296;29;20757;-83
2022/10/12 08:44:29;;;;;;;8.03;2.80;;;;;;;11.75;40.70;101306.53;10055648;29;20556;-82
2022/10/12 08:49:52;;;;;;;7.27;1.87;;;;;;;11.12;41.11;101318.69;10088558;29;20225;-82
2022/10/12 08:55:20;;;;;;;6.33;2.10;;;;;;;12.12;39.68;101299.69;10066193;29;20257;-83
2022/10/12 09:00:45;;;;;;;4.00;2.23;;;;;;;12.42;39.57;101312.16;10050908;29;20221;-83
2022/10/12 09:06:19;;;;;;;4.07;2.07;;;;;;;12.13;40.29;101313.47;10054935;29;20242;-83
2022/10/12 09:12:01;;;;;;;4.03;1.90;;;;;;;12.68;39.80;101311.13;10061617;29;20301;-83
2022/10/12 09:17:26;;;;;;;7.43;2.43;;;;;;;12.22;40.62;101307.88;10049552;29;20266;-83
2022/10/12 09:22:50;;;;;;;11.60;2.43;;;;;;;12.80;39.82;101302.03;10063148;29;20310;-83
2022/10/12 09:28:18;;;;;;;7.87;2.70;;;;;;;12.83;39.91;101303.38;10061080;29;20234;-83
2022/10/12 09:33:44;;;;;;;9.03;2.23;;;;;;;12.52;39.57;101295.75;10058895;29;20257;-82
2022/10/12 09:39:12;;;;;;;6.37;2.57;;;;;;;12.62;39.94;101291.81;10061400;29;20237;-83
2022/10/12 09:45:00;;;;;;;9.73;3.30;;;;;;;13.48;38.68;101285.56;10069688;29;20282;-83
2022/10/12 09:50:38;;;;;;;7.67;2.63;;;;;;;12.81;39.79;101292.38;10075967;29;20297;-83
2022/10/12 09:56:10;;;;;;;9.13;2.90;;;;;;;13.27;39.00;101289.03;10060335;29;20341;-82
2022/10/12 10:01:34;;;;;;;7.40;2.70;;;;;;;13.20;39.01;101291.50;10071912;29;20258;-83
2022/10/12 10:07:26;;;;;;;8.67;2.73;;;;;;;13.82;38.62;101279.03;10057961;29;20611;-83
2022/10/12 10:12:57;;;;;;;7.77;2.03;;;;;;;13.21;39.13;101284.69;10058072;29;20282;-82
2022/10/12 10:18:41;;;;;;;7.77;2.03;;;;;;;14.27;37.91;101279.50;10072342;29;20253;-83
2022/10/12 10:24:06;;;;;;;7.97;2.50;;;;;;;12.84;39.21;101279.56;10039445;29;20214;-82
2022/10/12 10:29:31;;;;;;;8.67;1.80;;;;;;;14.32;38.63;101273.66;10060980;29;20611;-83
2022/10/12 10:35:10;;;;;;;4.87;2.10;;;;;;;14.04;38.19;101271.22;10087947;29;20256;-82
2022/10/12 10:40:32;;;;;;;10.57;2.00;;;;;;;14.03;37.77;101278.06;10078051;29;20234;-82
2022/10/12 10:45:57;;;;;;;6.43;2.07;;;;;;;13.55;37.20;101277.41;10075039;29;20280;-83
2022/10/12 10:51:20;;;;;;;6.47;1.77;;;;;;;13.47;37.10;101273.38;10061932;29;20238;-82
2022/10/12 10:56:43;;;;;;;5.03;1.67;;;;;;;13.78;36.29;101269.56;10076375;29;20636;-83
2022/10/12 11:02:33;;;;;;;5.07;1.67;;;;;;;12.66;38.98;101261.69;10060409;29;20244;-82
2022/10/12 11:07:57;;;;;;;5.67;1.73;;;;;;;14.30;35.66;101254.13;10071048;29;20225;-83
2022/10/12 11:13:23;;;;;;;5.70;1.93;;;;;;;14.67;36.69;101240.28;10082674;29;20661;-83
2022/10/12 11:19:23;;;;;;;10.73;2.37;;;;;;;14.35;36.15;101236.91;10057872;29;20558;-84
2022/10/12 11:25:02;;;;;;;4.67;1.60;;;;;;;14.79;35.75;101244.09;10070643;29;20251;-83
2022/10/12 11:30:36;;;;;;;10.70;1.80;;;;;;;14.52;35.92;101227.50;10080884;29;20285;-83
2022/10/12 11:35:58;;;;;;;4.53;1.60;;;;;;;14.50;35.39;101220.50;10075197;29;20253;-83
2022/10/12 11:41:32;;;;;;;6.37;1.67;;;;;;;14.26;36.58;101218.28;10077371;29;20225;-83
2022/10/12 11:46:56;;;;;;;3.47;1.13;;;;;;;14.07;36.64;101208.16;10074588;29;20686;-83
2022/10/12 11:52:19;;;;;;;7.83;1.20;;;;;;;15.71;33.40;101186.41;10058574;29;20312;-83
2022/10/12 11:57:41;;;;;;;2.70;0.87;;;;;;;14.72;34.97;101195.50;10082488;29;20261;-83
2022/10/12 12:03:31;;;;;;;5.27;1.17;;;;;;;14.49;35.53;101194.13;10067390;29;20305;-82
2022/10/12 12:08:56;;;;;;;3.57;0.97;;;;;;;15.18;35.42;101182.38;10052550;29;20659;-82
2022/10/12 12:14:24;;;;;;;4.13;0.63;;;;;;;15.26;34.72;101172.09;10065628;29;20262;-82
2022/10/12 12:19:55;;;;;;;3.30;1.35;;;;;;;15.20;35.66;101173.50;10074639;29;20233;-81
2022/10/12 12:25:30;;;;;;;6.70;1.00;;;;;;;16.10;34.85;101165.91;10061392;29;20580;-82
2022/10/12 12:31:01;;;;;;;5.27;1.30;;;;;;;15.64;34.90;101163.41;10084425;29;20246;-82
2022/10/12 12:36:35;;;;;;;5.07;1.23;;;;;;;15.19;36.68;101149.94;10072536;29;20715;-83
2022/10/12 12:41:59;;;;;;;3.70;1.17;;;;;;;15.68;35.55;101155.84;10055116;29;20332;-82
2022/10/12 12:47:36;;;;;;;5.75;1.35;;;;;;;15.12;36.27;101144.81;10078862;29;20234;-83
2022/10/12 12:53:21;;;;;;;4.90;1.80;;;;;;;16.83;34.49;101145.16;10081362;29;20635;-83
2022/10/12 12:59:00;;;;;;;5.78;1.90;;;;;;;15.56;35.50;101142.44;10070889;29;20308;-83
2022/10/12 13:04:49;;;;;;;6.28;1.75;;;;;;;16.04;37.04;101144.56;10067838;29;20292;-83
2022/10/12 13:10:39;;;;;;;5.23;2.43;;;;;;;15.32;37.42;101148.81;10083355;29;20325;-82
2022/10/12 13:16:07;;;;;;;8.00;2.88;;;;;;;15.51;36.80;101137.78;10085240;29;20330;-81
2022/10/12 13:21:38;;;;;;;4.77;2.40;;;;;;;15.69;36.29;101134.78;10089399;29;20233;-81
2022/10/12 13:27:15;;;;;;;8.18;2.95;;;;;;;15.43;37.48;101130.16;10074848;29;20302;-81
2022/10/12 13:32:44;;;;;;;9.63;3.33;;;;;;;16.08;36.52;101125.59;10067502;29;20273;-81
2022/10/12 13:38:13;;;;;;;11.27;2.38;;;;;;;15.54;36.45;101107.84;10073768;29;20257;-81
2022/10/12 13:43:47;;;;;;;6.53;2.50;;;;;;;14.92;38.59;101108.75;10088629;29;20245;-82
2022/10/12 13:49:26;;;;;;;5.50;2.87;;;;;;;15.52;37.84;101101.69;10070217;29;20639;-81
2022/10/12 13:54:49;;;;;;;7.57;2.67;;;;;;;15.24;38.48;101098.59;10072918;29;20347;-81
2022/10/12 14:00:19;;;;;;;8.40;3.15;;;;;;;15.93;36.18;101095.03;10058839;29;20241;-81
2022/10/12 14:05:43;;;;;;;8.40;2.23;;;;;;;15.27;37.88;101083.72;10067782;29;20234;-81
2022/10/12 14:11:05;;;;;;;6.63;2.43;;;;;;;15.39;37.04;101071.56;10075048;29;20694;-81
2022/10/12 14:16:27;;;;;;;6.87;2.40;;;;;;;15.16;37.30;101066.28;10070402;29;20698;-81
2022/10/12 14:21:51;;;;;;;7.97;1.80;;;;;;;16.08;36.49;101063.03;10067507;29;20611;-81
2022/10/12 14:27:24;;;;;;;7.47;2.27;;;;;;;16.32;36.06;101056.53;10060699;29;20233;-81
2022/10/12 14:32:47;;;;;;;5.67;2.27;;;;;;;16.13;36.44;101047.75;10059435;29;20297;-81
2022/10/12 14:38:38;;;;;;;7.83;1.93;;;;;;;15.46;37.16;101055.63;10056607;29;20638;-80
2022/10/12 14:44:12;;;;;;;8.10;2.33;;;;;;;15.59;37.62;101056.50;10070336;29;20263;-80
2022/10/12 14:49:43;;;;;;;9.00;2.13;;;;;;;14.74;38.66;101051.28;10086859;29;20277;-80
2022/10/12 14:55:05;;;;;;;3.83;2.20;;;;;;;16.49;36.49;101042.06;10053394;29;20257;-81
2022/10/12 15:00:32;;;;;;;6.60;2.70;;;;;;;15.95;36.90;101032.94;10052522;29;20237;-81
2022/10/12 15:05:55;;;;;;;8.98;2.88;;;;;;;15.28;38.03;101039.94;10038599;29;20329;-82
2022/10/12 15:11:17;;;;;;;7.97;2.28;;;;;;;15.66;37.83;101030.31;10061340;29;20321;-81
2022/10/12 15:16:39;;;;;;;7.15;2.33;;;;;;;15.89;38.25;101031.50;10075894;29;20246;-81
2022/10/12 15:22:01;;;;;;;3.23;2.10;;;;;;;16.07;38.54;101018.72;10078155;29;20238;-80
2022/10/12 15:27:23;;;;;;;8.60;2.10;;;;;;;16.09;38.50;101022.03;10073357;29;20233;-81
2022/10/12 15:32:46;;;;;;;7.03;2.53;;;;;;;15.50;38.29;101024.47;10068522;29;20233;-81
2022/10/12 15:38:09;;;;;;;14.00;2.87;;;;;;;15.61;38.56;101024.88;10063666;29;20252;-82
2022/10/12 15:43:31;;;;;;;5.43;2.20;;;;;;;15.29;39.04;101018.88;10084521;29;20559;-83
2022/10/12 15:48:53;;;;;;;5.20;2.43;;;;;;;14.90;39.53;101019.44;10075177;29;20222;-82
2022/10/12 15:54:15;;;;;;;7.68;2.53;;;;;;;15.26;40.05;101011.03;10071328;29;20296;-82
2022/10/12 15:59:37;;;;;;;4.60;2.40;;;;;;;15.38;38.98;101019.59;10069975;29;20348;-82
2022/10/12 16:05:00;;;;;;;14.10;6.63;;;;;;;15.02;40.33;101010.97;10078925;29;20261;-82
2022/10/12 16:10:26;;;;;;;7.78;3.42;;;;;;;15.41;39.59;101021.72;10084870;29;20289;-83
2022/10/12 16:15:48;;;;;;;8.03;2.80;;;;;;;15.15;40.13;101019.19;10066362;29;20269;-83
2022/10/12 16:21:11;;;;;;;6.00;2.70;;;;;;;14.79;40.16;101014.22;10077693;29;20275;-82
2022/10/12 16:26:33;;;;;;;8.97;3.73;;;;;;;15.01;40.06;101012.16;10078161;29;20289;-82
2022/10/12 16:31:55;;;;;;;10.20;3.63;;;;;;;15.19;39.53;100987.25;10088172;29;20284;-82
2022/10/12 16:37:17;;;;;;;6.95;4.32;;;;;;;15.24;40.05;100976.47;10066803;29;20321;-83
2022/10/12 16:42:39;;;;;;;10.48;4.85;;;;;;;14.65;41.27;100971.06;10089134;29;20622;-82
2022/10/12 16:48:02;;;;;;;16.17;6.23;;;;;;;14.10;43.54;101014.72;10060965;29;20300;-82
2022/10/12 16:53:24;;;;;;;10.17;6.00;;;;;;;14.58;41.92;101007.69;10058300;29;20313;-82
2022/10/12 16:58:46;;;;;;;7.68;4.60;;;;;;;14.29;42.25;100974.56;10077945;29;20296;-83
2022/10/12 17:04:10;;;;;;;14.83;6.20;;;;;;;14.69;41.84;101003.25;10063304;29;20238;-83
2022/10/12 17:09:32;;;;;;;13.43;6.10;;;;;;;14.40;42.49;100995.66;10095589;29;20257;-83
2022/10/12 17:14:54;;;;;;;8.57;5.40;;;;;;;13.93;44.44;101028.97;10093932;29;20233;-83
2022/10/12 17:20:16;;;;;;;10.30;5.57;;;;;;;14.13;44.31;101027.38;10063306;29;20325;-82
2022/10/12 17:25:38;;;;;;;8.30;4.73;;;;;;;14.71;42.14;101015.09;10080777;29;20225;-82
2022/10/12 17:31:04;;;;;;;13.57;6.67;;;;;;;13.52;45.94;101034.50;10079628;29;20296;-83
2022/10/12 17:36:27;;;;;;;10.33;7.43;;;;;;;14.09;44.39;101015.88;10060391;29;20365;-83
2022/10/12 17:41:49;;;;;;;9.97;7.07;;;;;;;13.84;45.12;101042.34;10074901;29;20233;-83
2022/10/12 17:47:11;;;;;;;12.33;8.20;;;;;;;14.03;44.36;101045.63;10078654;29;20233;-81
2022/10/12 17:52:36;;;;;;;10.83;7.77;;;;;;;14.18;44.02;101047.03;10092544;29;20237;-81
2022/10/12 17:57:59;;;;;;;13.47;8.63;;;;;;;13.23;46.65;101060.72;10090127;29;20312;-81
2022/10/12 18:03:24;;;;;;;18.13;10.00;;;;;;;13.77;45.48;101053.38;10077228;29;20233;-81
2022/10/12 18:08:46;;;;;;;13.23;7.63;;;;;;;13.49;46.77;101057.81;10063469;29;20253;-82
2022/10/12 18:14:09;;;;;;;12.50;8.30;;;;;;;12.80;47.63;101049.41;10076559;29;20645;-82
2022/10/12 18:19:31;;;;;;;14.40;9.30;;;;;;;13.56;45.88;101041.13;10078288;29;20654;-83
2022/10/12 18:24:53;;;;;;;13.53;8.27;;;;;;;13.28;46.82;101041.56;10084674;29;20555;-83
2022/10/12 18:30:16;;;;;;;13.40;7.77;;;;;;;13.31;46.32;101035.22;10073159;29;20289;-82
2022/10/12 18:35:38;;;;;;;10.00;6.00;;;;;;;13.11;47.18;101046.41;10058250;29;20293;-82
2022/10/12 18:41:15;;;;;;;10.43;6.03;;;;;;;12.93;47.69;101040.75;10068541;29;20217;-82
2022/10/12 18:46:37;;;;;;;9.67;7.17;;;;;;;12.68;48.41;101039.59;10068775;29;20229;-82
2022/10/12 18:51:59;;;;;;;12.63;7.20;;;;;;;12.77;48.40;101044.44;10071652;29;20568;-82
2022/10/12 18:57:21;;;;;;;11.87;6.77;;;;;;;12.59;48.73;101047.25;10059916;29;20266;-83
2022/10/12 19:02:44;;;;;;;12.10;7.50;;;;;;;12.67;48.30;101049.25;10076672;29;20241;-83
2022/10/12 19:08:06;;;;;;;13.67;9.10;;;;;;;12.51;49.16;101038.78;10084726;29;20323;-82
2022/10/12 19:13:28;;;;;;;12.40;8.23;;;;;;;11.89;50.06;101047.41;10076521;29;20325;-81
2022/10/12 19:18:59;;;;;;;15.00;9.70;;;;;;;12.29;48.89;101019.91;10071532;29;20569;-80
2022/10/12 19:24:21;;;;;;;19.07;11.10;;;;;;;11.74;50.24;101020.44;10071058;29;20631;-81
2022/10/12 19:29:43;;;;;;;17.77;8.87;;;;;;;11.96;49.83;101031.66;10068300;29;20254;-81
2022/10/12 19:35:06;;;;;;;14.47;8.57;;;;;;;11.14;51.82;101032.25;10065100;29;20260;-81
2022/10/12 19:40:28;;;;;;;8.53;7.33;;;;;;;11.26;51.17;101018.38;10087589;29;20261;-81
2022/10/12 19:45:50;;;;;;;11.87;7.97;;;;;;;11.39;50.79;101001.69;10074135;29;20289;-81
2022/10/12 19:51:13;;;;;;;14.67;8.73;;;;;;;10.82;52.55;101007.19;10064975;29;20249;-80
2022/10/12 19:56:35;;;;;;;14.67;9.03;;;;;;;11.69;50.26;101000.03;10082849;29;20770;-81
2022/10/12 20:01:57;;;;;;;13.53;9.00;;;;;;;11.40;50.91;101000.53;10090044;29;20264;-80
2022/10/12 20:07:20;;;;;;;10.93;9.23;;;;;;;11.03;51.94;101011.13;10077958;29;20237;-80
2022/10/12 20:12:42;;;;;;;13.87;9.00;;;;;;;11.52;50.43;101004.44;10056206;29;20979;-80
2022/10/12 20:18:04;;;;;;;13.43;9.13;;;;;;;10.95;51.40;101008.25;10064226;29;20372;-82
2022/10/12 20:23:26;;;;;;;17.13;11.50;;;;;;;11.49;50.95;100995.78;10090112;29;20284;-81
2022/10/12 20:28:49;;;;;;;17.87;12.30;;;;;;;11.31;51.58;100999.66;10081132;29;20253;-81
2022/10/12 20:34:11;;;;;;;13.83;8.67;;;;;;;11.74;50.51;100986.56;10057636;29;20678;-81
2022/10/12 20:39:34;;;;;;;13.80;9.50;;;;;;;12.26;49.31;100992.31;10071518;29;20556;-81
2022/10/12 20:44:56;;;;;;;20.93;13.73;;;;;;;11.82;50.71;100993.41;10067522;29;20210;-81
2022/10/12 20:50:18;;;;;;;20.77;14.87;;;;;;;11.93;50.53;100989.94;10076310;29;20201;-82
2022/10/12 20:55:40;;;;;;;17.63;11.17;;;;;;;12.13;49.45;100993.28;10072063;29;20564;-82
2022/10/12 21:01:08;;;;;;;15.20;11.13;;;;;;;11.94;49.79;100997.25;10070164;29;20234;-82
2022/10/12 21:06:31;;;;;;;21.83;11.20;;;;;;;12.45;49.20;101000.50;10079795;29;20229;-82
2022/10/12 21:11:53;;;;;;;17.30;12.13;;;;;;;12.30;48.90;100996.16;10099277;29;20270;-82
2022/10/12 21:17:15;;;;;;;18.10;10.40;;;;;;;11.82;49.58;100994.25;10081858;29;20722;-82
2022/10/12 21:22:37;;;;;;;17.73;10.03;;;;;;;12.00;49.99;100986.63;10067024;29;20226;-82
2022/10/12 21:27:59;;;;;;;14.53;9.63;;;;;;;12.27;48.81;100982.66;10082206;29;20225;-82
2022/10/12 21:33:22;;;;;;;16.37;8.80;;;;;;;11.92;49.93;100976.97;10076043;29;20315;-82
2022/10/12 21:38:44;;;;;;;14.67;8.23;;;;;;;11.96;50.74;100978.00;10081537;29;20254;-81
2022/10/12 21:44:06;;;;;;;14.17;8.50;;;;;;;11.48;52.37;100983.63;10092783;29;20307;-81
2022/10/12 21:49:28;;;;;;;14.37;7.57;;;;;;;11.54;52.46;100973.06;10063572;29;20317;-81
2022/10/12 21:54:50;;;;;;;13.27;8.50;;;;;;;11.63;52.59;100974.75;10061243;29;20266;-81
2022/10/12 22:00:13;;;;;;;14.03;8.53;;;;;;;12.15;50.92;100974.00;10097779;29;20260;-81
2022/10/12 22:05:39;;;;;;;16.60;8.77;;;;;;;12.19;50.86;100972.19;10071632;29;20229;-81
2022/10/12 22:11:06;;;;;;;15.20;8.30;;;;;;;11.90;52.21;100967.16;10066138;29;20257;-82
2022/10/12 22:16:29;;;;;;;14.63;8.90;;;;;;;12.37;50.79;100975.91;10057314;29;20619;-81
2022/10/12 22:21:51;;;;;;;14.50;9.03;;;;;;;12.39;49.96;100980.03;10066268;29;20241;-82
2022/10/12 22:27:14;;;;;;;14.43;9.03;;;;;;;12.10;50.93;100960.91;10064538;29;20278;-82
2022/10/12 22:32:36;;;;;;;11.17;8.33;;;;;;;12.01;51.49;100965.69;10079632;29;20229;-81
2022/10/12 22:37:58;;;;;;;13.03;8.43;;;;;;;11.49;52.78;100962.72;10075724;29;21440;-81
2022/10/12 22:43:20;;;;;;;12.17;8.37;;;;;;;12.00;51.22;100944.25;10091621;29;20254;-81
2022/10/12 22:48:43;;;;;;;11.57;8.37;;;;;;;11.98;51.41;100947.44;10075580;29;20229;-82
2022/10/12 22:54:06;;;;;;;14.87;8.27;;;;;;;12.19;50.90;100946.75;10051222;29;20300;-80
2022/10/12 22:59:28;;;;;;;14.23;8.20;;;;;;;11.69;51.51;100950.03;10062556;29;20260;-81
2022/10/12 23:04:50;;;;;;;11.83;8.17;;;;;;;12.36;50.24;100955.28;10087749;29;20658;-82
2022/10/12 23:10:12;;;;;;;15.37;7.93;;;;;;;12.02;51.38;100943.91;10089083;29;20265;-81
2022/10/12 23:15:34;;;;;;;12.30;8.50;;;;;;;11.60;52.34;100947.16;10052723;29;20261;-81
2022/10/12 23:20:56;;;;;;;11.87;8.60;;;;;;;12.56;50.40;100945.28;10060953;29;20313;-80
2022/10/12 23:26:20;;;;;;;15.93;8.67;;;;;;;12.20;51.73;100943.63;10080071;29;20319;-82
2022/10/12 23:31:42;;;;;;;13.00;8.30;;;;;;;11.91;51.42;100932.94;10065023;29;20262;-81
2022/10/12 23:37:05;;;;;;;13.47;9.00;;;;;;;11.67;52.57;100929.75;10066506;29;20297;-81
2022/10/12 23:42:27;;;;;;;16.67;8.93;;;;;;;11.63;52.69;100931.56;10044388;29;20250;-82
2022/10/12 23:47:49;;;;;;;15.70;8.90;;;;;;;12.10;51.44;100937.47;10090987;29;20237;-82
2022/10/12 23:53:13;;;;;;;15.10;8.97;;;;;;;12.13;50.77;100931.13;10061336;29;20301;-82
2022/10/12 23:58:35;;;;;;;13.63;9.10;;;;;;;12.34;50.48;100927.31;10064623;29;20249;-82
